Orbital elements of FENGYUN 1C DEB
| Launched | 9 May 1999 |
| Flight ended | – |
| Launch site | Taiyuan Space Center, PRC |
| Owner | People's Republic of China |
| NORAD ID | 36280 |
| Date fetched |
Epoch osculation |
Inc. [°] |
Ecc. | RA asc node [hr] |
Arg Peri. [°] |
Mean anom [°] |
Mean motion [rev/day] |
Abs. mag |
| Date fetched |
Epoch osculation |
Inc. [°] |
Ecc. | RA asc node [hr] |
Arg Peri. [°] |
Mean anom [°] |
Mean motion [rev/day] |
Abs. mag |
| 2026 May 08 17:57 | 2026 May 03 08:53:56 | 98.7491 | 0.00627 | 10.2425 | 25.9368 | 350.9969 | 14.10204 | – |
| 2026 May 07 17:58 | 2026 May 03 08:53:56 | 98.7491 | 0.00627 | 10.2425 | 25.9368 | 350.9969 | 14.10204 | – |
| 2026 May 06 17:57 | 2026 May 03 08:53:56 | 98.7491 | 0.00627 | 10.2425 | 25.9368 | 350.9969 | 14.10204 | – |
| 2026 May 05 17:57 | 2026 May 03 08:53:56 | 98.7491 | 0.00627 | 10.2425 | 25.9368 | 350.9969 | 14.10204 | – |
| 2026 May 04 17:57 | 2026 Apr 30 07:54:19 | 98.7494 | 0.00630 | 10.0452 | 34.4870 | 350.9969 | 14.10204 | – |
| 2026 May 03 17:57 | 2026 Apr 30 07:54:19 | 98.7494 | 0.00630 | 10.0452 | 34.4870 | 350.9969 | 14.10204 | – |
| 2026 May 02 17:57 | 2026 Apr 30 07:54:19 | 98.7494 | 0.00630 | 10.0452 | 34.4870 | 350.9969 | 14.10204 | – |
| 2026 May 01 17:56 | 2026 Apr 30 07:54:19 | 98.7494 | 0.00630 | 10.0452 | 34.4870 | 350.9969 | 14.10204 | – |
| 2026 Apr 30 17:56 | 2026 Apr 30 07:54:19 | 98.7494 | 0.00630 | 10.0452 | 34.4870 | 350.9969 | 14.10204 | – |
| 2026 Apr 29 17:57 | 2026 Apr 21 07:37:44 | 98.7505 | 0.00637 | 9.4606 | 59.6863 | 350.9969 | 14.10204 | – |
| 2026 Apr 28 17:56 | 2026 Apr 21 07:37:44 | 98.7505 | 0.00637 | 9.4606 | 59.6863 | 350.9969 | 14.10204 | – |
| 2026 Apr 27 17:58 | 2026 Apr 21 07:37:44 | 98.7505 | 0.00637 | 9.4606 | 59.6863 | 350.9969 | 14.10204 | – |
| 2026 Apr 26 17:58 | 2026 Apr 21 07:37:44 | 98.7505 | 0.00637 | 9.4606 | 59.6863 | 350.9969 | 14.10204 | – |
| 2026 Apr 25 17:58 | 2026 Apr 21 07:37:44 | 98.7505 | 0.00637 | 9.4606 | 59.6863 | 350.9969 | 14.10204 | – |
| 2026 Apr 24 17:59 | 2026 Apr 21 07:37:44 | 98.7505 | 0.00637 | 9.4606 | 59.6863 | 350.9969 | 14.10204 | – |
| 2026 Apr 23 17:57 | 2026 Apr 19 07:43:41 | 98.7513 | 0.00640 | 9.3311 | 65.2195 | 350.9969 | 14.10204 | – |
| 2026 Apr 22 17:57 | 2026 Apr 19 07:43:41 | 98.7513 | 0.00640 | 9.3311 | 65.2195 | 350.9969 | 14.10204 | – |
| 2026 Apr 21 17:57 | 2026 Apr 19 07:43:41 | 98.7513 | 0.00640 | 9.3311 | 65.2195 | 350.9969 | 14.10204 | – |
| 2026 Apr 20 17:57 | 2026 Apr 19 07:43:41 | 98.7513 | 0.00640 | 9.3311 | 65.2195 | 350.9969 | 14.10204 | – |
| 2026 Apr 19 17:58 | 2026 Apr 19 07:43:41 | 98.7513 | 0.00640 | 9.3311 | 65.2195 | 350.9969 | 14.10204 | – |
| 2026 Apr 18 17:56 | 2026 Apr 12 08:50:44 | 98.7518 | 0.00643 | 8.8799 | 84.4516 | 350.9969 | 14.10204 | – |
| 2026 Apr 16 17:57 | 2026 Apr 12 08:50:44 | 98.7518 | 0.00643 | 8.8799 | 84.4516 | 350.9969 | 14.10204 | – |
| 2026 Apr 14 17:57 | 2026 Apr 12 08:50:44 | 98.7518 | 0.00643 | 8.8799 | 84.4516 | 350.9969 | 14.10204 | – |
| 2026 Apr 13 17:57 | 2026 Apr 12 08:50:44 | 98.7518 | 0.00643 | 8.8799 | 84.4516 | 350.9969 | 14.10204 | – |
| 2026 Apr 12 17:57 | 2026 Apr 07 07:55:32 | 98.7559 | 0.00645 | 8.5533 | 98.1187 | 350.9969 | 14.10204 | – |
| 2026 Apr 11 17:57 | 2026 Apr 07 07:55:32 | 98.7559 | 0.00645 | 8.5533 | 98.1187 | 350.9969 | 14.10204 | – |